sensor_id;sensor_type;location;lat;lon;timestamp;temperature;humidity
12438;DHT22;6283;51.330;12.374;2023-07-28T00:01:55;17.30;1.00
12438;DHT22;6283;51.330;12.374;2023-07-28T00:04:20;17.20;1.00
12438;DHT22;6283;51.330;12.374;2023-07-28T00:06:46;17.20;1.00
12438;DHT22;6283;51.330;12.374;2023-07-28T00:09:11;17.30;1.00
12438;DHT22;6283;51.330;12.374;2023-07-28T00:11:37;17.30;1.00
12438;DHT22;6283;51.330;12.374;2023-07-28T00:14:03;17.30;1.00
12438;DHT22;6283;51.330;12.374;2023-07-28T00:16:28;17.30;1.00
12438;DHT22;6283;51.330;12.374;2023-07-28T00:18:54;17.30;1.00
12438;DHT22;6283;51.330;12.374;2023-07-28T00:21:20;17.40;1.00
12438;DHT22;6283;51.330;12.374;2023-07-28T00:23:45;17.40;1.00
12438;DHT22;6283;51.330;12.374;2023-07-28T00:26:11;17.40;1.00
12438;DHT22;6283;51.330;12.374;2023-07-28T00:28:36;17.40;1.00
12438;DHT22;6283;51.330;12.374;2023-07-28T00:31:02;17.50;1.00
12438;DHT22;6283;51.330;12.374;2023-07-28T00:33:28;17.50;1.00
12438;DHT22;6283;51.330;12.374;2023-07-28T00:35:53;17.50;1.00
12438;DHT22;6283;51.330;12.374;2023-07-28T00:38:19;17.50;1.00
12438;DHT22;6283;51.330;12.374;2023-07-28T00:40:44;17.50;1.00
12438;DHT22;6283;51.330;12.374;2023-07-28T00:43:10;17.50;1.00
12438;DHT22;6283;51.330;12.374;2023-07-28T00:45:36;17.50;1.00
12438;DHT22;6283;51.330;12.374;2023-07-28T00:48:02;17.50;1.00
12438;DHT22;6283;51.330;12.374;2023-07-28T00:50:28;17.50;1.00
12438;DHT22;6283;51.330;12.374;2023-07-28T00:52:55;17.50;1.00
12438;DHT22;6283;51.330;12.374;2023-07-28T00:55:23;17.50;1.00
12438;DHT22;6283;51.330;12.374;2023-07-28T00:57:48;17.50;1.00
12438;DHT22;6283;51.330;12.374;2023-07-28T01:00:14;17.50;1.00
12438;DHT22;6283;51.330;12.374;2023-07-28T01:02:40;17.50;1.00
12438;DHT22;6283;51.330;12.374;2023-07-28T01:05:07;17.50;1.00
12438;DHT22;6283;51.330;12.374;2023-07-28T01:07:53;17.50;1.00
12438;DHT22;6283;51.330;12.374;2023-07-28T01:10:28;17.50;1.00
12438;DHT22;6283;51.330;12.374;2023-07-28T01:12:55;17.50;1.00
12438;DHT22;6283;51.330;12.374;2023-07-28T01:15:21;17.50;1.00
12438;DHT22;6283;51.330;12.374;2023-07-28T01:17:46;17.50;1.00
12438;DHT22;6283;51.330;12.374;2023-07-28T01:20:12;17.50;1.00
12438;DHT22;6283;51.330;12.374;2023-07-28T01:26:05;17.50;1.00
12438;DHT22;6283;51.330;12.374;2023-07-28T01:28:35;17.60;1.00
12438;DHT22;6283;51.330;12.374;2023-07-28T01:31:02;17.60;1.00
12438;DHT22;6283;51.330;12.374;2023-07-28T01:33:29;17.60;1.00
12438;DHT22;6283;51.330;12.374;2023-07-28T01:35:54;17.60;1.00
12438;DHT22;6283;51.330;12.374;2023-07-28T01:38:20;17.60;1.00
12438;DHT22;6283;51.330;12.374;2023-07-28T01:40:46;17.70;1.00
12438;DHT22;6283;51.330;12.374;2023-07-28T01:43:12;17.70;1.40
12438;DHT22;6283;51.330;12.374;2023-07-28T01:45:38;17.70;99.90
12438;DHT22;6283;51.330;12.374;2023-07-28T01:48:04;17.70;99.90
12438;DHT22;6283;51.330;12.374;2023-07-28T01:50:30;17.70;99.90
12438;DHT22;6283;51.330;12.374;2023-07-28T01:52:55;17.80;99.90
12438;DHT22;6283;51.330;12.374;2023-07-28T01:55:21;17.80;99.90
12438;DHT22;6283;51.330;12.374;2023-07-28T01:57:55;17.80;99.90
12438;DHT22;6283;51.330;12.374;2023-07-28T02:00:20;17.80;99.90
12438;DHT22;6283;51.330;12.374;2023-07-28T02:02:47;17.80;99.90
12438;DHT22;6283;51.330;12.374;2023-07-28T02:05:13;17.80;99.90
12438;DHT22;6283;51.330;12.374;2023-07-28T02:07:39;17.80;99.90
12438;DHT22;6283;51.330;12.374;2023-07-28T02:10:05;17.80;99.90
12438;DHT22;6283;51.330;12.374;2023-07-28T02:12:31;17.80;99.90
12438;DHT22;6283;51.330;12.374;2023-07-28T02:14:56;17.80;99.90
12438;DHT22;6283;51.330;12.374;2023-07-28T02:17:22;17.80;99.90
12438;DHT22;6283;51.330;12.374;2023-07-28T02:19:47;17.80;99.90
12438;DHT22;6283;51.330;12.374;2023-07-28T02:22:13;17.80;99.90
12438;DHT22;6283;51.330;12.374;2023-07-28T02:24:39;17.80;99.90
12438;DHT22;6283;51.330;12.374;2023-07-28T02:27:04;17.80;99.90
12438;DHT22;6283;51.330;12.374;2023-07-28T02:29:30;17.80;99.90
12438;DHT22;6283;51.330;12.374;2023-07-28T02:31:56;17.80;99.90
12438;DHT22;6283;51.330;12.374;2023-07-28T02:34:21;17.80;99.90
12438;DHT22;6283;51.330;12.374;2023-07-28T02:36:47;17.80;99.90
12438;DHT22;6283;51.330;12.374;2023-07-28T02:39:13;17.80;99.90
12438;DHT22;6283;51.330;12.374;2023-07-28T02:41:38;17.80;99.90
12438;DHT22;6283;51.330;12.374;2023-07-28T02:44:04;17.80;99.90
12438;DHT22;6283;51.330;12.374;2023-07-28T02:46:30;17.80;99.90
12438;DHT22;6283;51.330;12.374;2023-07-28T02:48:55;17.80;99.90
12438;DHT22;6283;51.330;12.374;2023-07-28T02:51:21;17.80;99.90
12438;DHT22;6283;51.330;12.374;2023-07-28T02:53:47;17.80;99.90
12438;DHT22;6283;51.330;12.374;2023-07-28T02:56:12;17.80;99.90
12438;DHT22;6283;51.330;12.374;2023-07-28T02:58:38;17.80;99.90
12438;DHT22;6283;51.330;12.374;2023-07-28T03:01:04;17.80;99.90
12438;DHT22;6283;51.330;12.374;2023-07-28T03:03:30;17.80;99.90
12438;DHT22;6283;51.330;12.374;2023-07-28T03:05:56;17.80;99.90
12438;DHT22;6283;51.330;12.374;2023-07-28T03:08:22;17.80;99.90
12438;DHT22;6283;51.330;12.374;2023-07-28T03:10:47;17.80;99.90
12438;DHT22;6283;51.330;12.374;2023-07-28T03:13:13;17.80;99.90
12438;DHT22;6283;51.330;12.374;2023-07-28T03:15:38;17.80;99.90
12438;DHT22;6283;51.330;12.374;2023-07-28T03:18:04;17.80;99.90
12438;DHT22;6283;51.330;12.374;2023-07-28T03:20:30;17.80;99.90
12438;DHT22;6283;51.330;12.374;2023-07-28T03:22:56;17.80;99.90
12438;DHT22;6283;51.330;12.374;2023-07-28T03:25:21;17.80;99.90
12438;DHT22;6283;51.330;12.374;2023-07-28T03:27:47;17.80;99.90
12438;DHT22;6283;51.330;12.374;2023-07-28T03:30:13;17.80;99.90
12438;DHT22;6283;51.330;12.374;2023-07-28T03:32:39;17.80;99.90
12438;DHT22;6283;51.330;12.374;2023-07-28T03:35:05;17.80;99.90
12438;DHT22;6283;51.330;12.374;2023-07-28T03:37:32;17.90;99.90
12438;DHT22;6283;51.330;12.374;2023-07-28T03:39:57;17.90;99.90
12438;DHT22;6283;51.330;12.374;2023-07-28T03:42:23;17.90;99.90
12438;DHT22;6283;51.330;12.374;2023-07-28T03:44:49;17.90;99.90
12438;DHT22;6283;51.330;12.374;2023-07-28T03:47:14;17.90;99.90
12438;DHT22;6283;51.330;12.374;2023-07-28T03:49:40;17.90;99.90
12438;DHT22;6283;51.330;12.374;2023-07-28T03:52:06;17.90;99.90
12438;DHT22;6283;51.330;12.374;2023-07-28T03:54:31;17.90;99.90
12438;DHT22;6283;51.330;12.374;2023-07-28T03:56:57;17.90;99.90
12438;DHT22;6283;51.330;12.374;2023-07-28T03:59:23;17.90;99.90
12438;DHT22;6283;51.330;12.374;2023-07-28T04:01:48;17.90;99.90
12438;DHT22;6283;51.330;12.374;2023-07-28T04:04:14;17.90;99.90
12438;DHT22;6283;51.330;12.374;2023-07-28T04:06:41;17.90;99.90
12438;DHT22;6283;51.330;12.374;2023-07-28T04:09:07;17.90;99.90
12438;DHT22;6283;51.330;12.374;2023-07-28T04:11:33;17.90;99.90
12438;DHT22;6283;51.330;12.374;2023-07-28T04:13:59;17.90;99.90
12438;DHT22;6283;51.330;12.374;2023-07-28T04:16:25;17.90;99.90
12438;DHT22;6283;51.330;12.374;2023-07-28T04:18:50;17.90;99.90
12438;DHT22;6283;51.330;12.374;2023-07-28T04:21:16;17.90;99.90
12438;DHT22;6283;51.330;12.374;2023-07-28T04:23:42;17.90;99.90
12438;DHT22;6283;51.330;12.374;2023-07-28T04:26:09;17.90;99.90
12438;DHT22;6283;51.330;12.374;2023-07-28T04:28:34;17.90;99.90
12438;DHT22;6283;51.330;12.374;2023-07-28T04:31:00;17.90;99.90
12438;DHT22;6283;51.330;12.374;2023-07-28T04:33:26;17.90;99.90
12438;DHT22;6283;51.330;12.374;2023-07-28T04:35:51;17.90;99.90
12438;DHT22;6283;51.330;12.374;2023-07-28T04:38:17;17.90;99.90
12438;DHT22;6283;51.330;12.374;2023-07-28T04:40:44;17.90;99.90
12438;DHT22;6283;51.330;12.374;2023-07-28T04:43:10;17.90;99.90
12438;DHT22;6283;51.330;12.374;2023-07-28T04:45:35;17.80;99.90
12438;DHT22;6283;51.330;12.374;2023-07-28T04:48:01;17.80;99.90
12438;DHT22;6283;51.330;12.374;2023-07-28T04:50:28;17.80;99.90
12438;DHT22;6283;51.330;12.374;2023-07-28T04:52:54;17.80;99.90
12438;DHT22;6283;51.330;12.374;2023-07-28T04:55:19;17.90;99.90
12438;DHT22;6283;51.330;12.374;2023-07-28T04:57:46;17.90;99.90
12438;DHT22;6283;51.330;12.374;2023-07-28T05:00:14;17.90;99.90
12438;DHT22;6283;51.330;12.374;2023-07-28T05:02:40;17.90;99.90
12438;DHT22;6283;51.330;12.374;2023-07-28T05:05:05;17.90;99.90
12438;DHT22;6283;51.330;12.374;2023-07-28T05:07:31;17.90;99.90
12438;DHT22;6283;51.330;12.374;2023-07-28T05:09:57;17.90;99.90
12438;DHT22;6283;51.330;12.374;2023-07-28T05:12:22;18.00;99.90
12438;DHT22;6283;51.330;12.374;2023-07-28T05:14:48;18.00;99.90
12438;DHT22;6283;51.330;12.374;2023-07-28T05:17:13;18.00;99.90
12438;DHT22;6283;51.330;12.374;2023-07-28T05:19:40;18.00;99.90
12438;DHT22;6283;51.330;12.374;2023-07-28T05:22:05;18.00;99.90
12438;DHT22;6283;51.330;12.374;2023-07-28T05:24:33;18.00;99.90
12438;DHT22;6283;51.330;12.374;2023-07-28T05:26:58;18.00;99.90
12438;DHT22;6283;51.330;12.374;2023-07-28T05:29:24;18.00;99.90
12438;DHT22;6283;51.330;12.374;2023-07-28T05:31:50;18.00;99.90
12438;DHT22;6283;51.330;12.374;2023-07-28T05:34:16;18.00;99.90
12438;DHT22;6283;51.330;12.374;2023-07-28T05:36:42;18.00;99.90
12438;DHT22;6283;51.330;12.374;2023-07-28T05:39:08;18.10;99.90
12438;DHT22;6283;51.330;12.374;2023-07-28T05:41:33;18.10;99.90
12438;DHT22;6283;51.330;12.374;2023-07-28T05:43:59;18.10;99.90
12438;DHT22;6283;51.330;12.374;2023-07-28T05:46:24;18.20;99.90
12438;DHT22;6283;51.330;12.374;2023-07-28T05:48:50;18.20;99.90
12438;DHT22;6283;51.330;12.374;2023-07-28T05:51:16;18.20;99.90
12438;DHT22;6283;51.330;12.374;2023-07-28T05:53:41;18.20;99.90
12438;DHT22;6283;51.330;12.374;2023-07-28T05:56:07;18.20;99.90
12438;DHT22;6283;51.330;12.374;2023-07-28T05:58:33;18.30;99.90
12438;DHT22;6283;51.330;12.374;2023-07-28T06:00:58;18.30;99.90
12438;DHT22;6283;51.330;12.374;2023-07-28T06:03:24;18.30;99.90
12438;DHT22;6283;51.330;12.374;2023-07-28T06:05:50;18.30;99.90
12438;DHT22;6283;51.330;12.374;2023-07-28T06:08:17;18.30;99.90
12438;DHT22;6283;51.330;12.374;2023-07-28T06:10:42;18.40;99.90
12438;DHT22;6283;51.330;12.374;2023-07-28T06:13:08;18.40;99.90
12438;DHT22;6283;51.330;12.374;2023-07-28T06:15:34;18.50;99.90
12438;DHT22;6283;51.330;12.374;2023-07-28T06:18:01;18.50;50.00
12438;DHT22;6283;51.330;12.374;2023-07-28T06:20:28;18.50;36.60
12438;DHT22;6283;51.330;12.374;2023-07-28T06:22:54;18.50;71.30
12438;DHT22;6283;51.330;12.374;2023-07-28T06:25:20;18.60;57.20
12438;DHT22;6283;51.330;12.374;2023-07-28T06:27:46;18.60;36.80
12438;DHT22;6283;51.330;12.374;2023-07-28T06:30:12;18.70;53.30
12438;DHT22;6283;51.330;12.374;2023-07-28T06:32:38;18.70;19.70
12438;DHT22;6283;51.330;12.374;2023-07-28T06:35:06;18.80;22.60
12438;DHT22;6283;51.330;12.374;2023-07-28T06:37:33;18.80;17.40
12438;DHT22;6283;51.330;12.374;2023-07-28T06:39:59;18.80;1.00
12438;DHT22;6283;51.330;12.374;2023-07-28T06:42:25;18.80;1.00
12438;DHT22;6283;51.330;12.374;2023-07-28T06:44:51;18.90;1.00
12438;DHT22;6283;51.330;12.374;2023-07-28T06:47:17;18.90;64.30
12438;DHT22;6283;51.330;12.374;2023-07-28T06:49:43;18.90;1.00
12438;DHT22;6283;51.330;12.374;2023-07-28T06:52:09;19.00;1.00
12438;DHT22;6283;51.330;12.374;2023-07-28T06:54:36;19.00;99.90
12438;DHT22;6283;51.330;12.374;2023-07-28T06:57:01;19.10;99.90
12438;DHT22;6283;51.330;12.374;2023-07-28T06:59:27;19.10;99.90
12438;DHT22;6283;51.330;12.374;2023-07-28T07:01:53;19.20;71.10
12438;DHT22;6283;51.330;12.374;2023-07-28T07:04:19;19.30;19.00
12438;DHT22;6283;51.330;12.374;2023-07-28T07:06:44;19.30;1.00
12438;DHT22;6283;51.330;12.374;2023-07-28T07:09:10;19.40;1.00
12438;DHT22;6283;51.330;12.374;2023-07-28T07:11:40;19.40;1.00
12438;DHT22;6283;51.330;12.374;2023-07-28T07:14:06;19.40;1.00
12438;DHT22;6283;51.330;12.374;2023-07-28T07:16:32;19.50;1.00
12438;DHT22;6283;51.330;12.374;2023-07-28T07:18:57;19.50;1.00
12438;DHT22;6283;51.330;12.374;2023-07-28T07:21:23;19.50;1.00
12438;DHT22;6283;51.330;12.374;2023-07-28T07:23:49;19.60;1.00
12438;DHT22;6283;51.330;12.374;2023-07-28T07:26:15;19.70;1.00
12438;DHT22;6283;51.330;12.374;2023-07-28T07:28:40;19.80;1.00
12438;DHT22;6283;51.330;12.374;2023-07-28T07:31:13;20.00;99.90
12438;DHT22;6283;51.330;12.374;2023-07-28T07:33:39;20.10;99.90
12438;DHT22;6283;51.330;12.374;2023-07-28T07:36:05;20.30;1.00
12438;DHT22;6283;51.330;12.374;2023-07-28T07:38:30;20.30;1.00
12438;DHT22;6283;51.330;12.374;2023-07-28T07:40:56;20.40;1.00
12438;DHT22;6283;51.330;12.374;2023-07-28T07:43:22;20.40;1.00
12438;DHT22;6283;51.330;12.374;2023-07-28T07:45:47;20.40;1.00
12438;DHT22;6283;51.330;12.374;2023-07-28T07:48:15;20.40;1.00
12438;DHT22;6283;51.330;12.374;2023-07-28T07:50:41;20.40;1.00
12438;DHT22;6283;51.330;12.374;2023-07-28T07:53:06;20.50;1.00
12438;DHT22;6283;51.330;12.374;2023-07-28T07:55:32;20.60;1.00
12438;DHT22;6283;51.330;12.374;2023-07-28T07:57:58;20.60;1.00
12438;DHT22;6283;51.330;12.374;2023-07-28T08:00:23;20.70;1.00
12438;DHT22;6283;51.330;12.374;2023-07-28T08:02:49;20.70;99.90
12438;DHT22;6283;51.330;12.374;2023-07-28T08:05:15;20.70;99.90
12438;DHT22;6283;51.330;12.374;2023-07-28T08:07:41;20.80;99.90
12438;DHT22;6283;51.330;12.374;2023-07-28T08:10:07;20.90;1.00
12438;DHT22;6283;51.330;12.374;2023-07-28T08:12:33;20.90;99.90
12438;DHT22;6283;51.330;12.374;2023-07-28T08:15:00;21.00;1.00
12438;DHT22;6283;51.330;12.374;2023-07-28T08:17:25;21.10;99.90
12438;DHT22;6283;51.330;12.374;2023-07-28T08:19:51;21.00;99.90
12438;DHT22;6283;51.330;12.374;2023-07-28T08:22:16;21.10;99.90
12438;DHT22;6283;51.330;12.374;2023-07-28T08:24:42;21.10;99.90
12438;DHT22;6283;51.330;12.374;2023-07-28T08:27:08;21.10;99.90
12438;DHT22;6283;51.330;12.374;2023-07-28T08:29:33;21.10;1.00
12438;DHT22;6283;51.330;12.374;2023-07-28T08:31:59;21.10;1.00
12438;DHT22;6283;51.330;12.374;2023-07-28T08:34:25;21.20;1.00
12438;DHT22;6283;51.330;12.374;2023-07-28T08:36:51;21.10;1.00
12438;DHT22;6283;51.330;12.374;2023-07-28T08:39:17;21.20;1.00
12438;DHT22;6283;51.330;12.374;2023-07-28T08:41:43;21.10;1.00
12438;DHT22;6283;51.330;12.374;2023-07-28T08:44:09;21.20;99.90
12438;DHT22;6283;51.330;12.374;2023-07-28T08:46:35;21.20;99.90
12438;DHT22;6283;51.330;12.374;2023-07-28T08:49:01;21.20;1.00
12438;DHT22;6283;51.330;12.374;2023-07-28T08:51:27;21.30;99.90
12438;DHT22;6283;51.330;12.374;2023-07-28T08:53:53;21.30;99.90
12438;DHT22;6283;51.330;12.374;2023-07-28T08:56:18;21.30;99.90
12438;DHT22;6283;51.330;12.374;2023-07-28T08:58:44;21.30;99.90
12438;DHT22;6283;51.330;12.374;2023-07-28T09:01:11;21.30;99.90
12438;DHT22;6283;51.330;12.374;2023-07-28T09:03:40;21.40;99.90
12438;DHT22;6283;51.330;12.374;2023-07-28T09:06:07;21.50;99.90
12438;DHT22;6283;51.330;12.374;2023-07-28T09:08:36;21.60;99.90
12438;DHT22;6283;51.330;12.374;2023-07-28T09:11:04;21.60;99.90
12438;DHT22;6283;51.330;12.374;2023-07-28T09:13:41;21.60;99.90
12438;DHT22;6283;51.330;12.374;2023-07-28T09:16:17;21.60;99.90
12438;DHT22;6283;51.330;12.374;2023-07-28T09:18:43;21.70;99.90
12438;DHT22;6283;51.330;12.374;2023-07-28T09:21:20;21.80;99.90
12438;DHT22;6283;51.330;12.374;2023-07-28T09:23:47;21.90;99.90
12438;DHT22;6283;51.330;12.374;2023-07-28T09:26:14;21.90;99.90
12438;DHT22;6283;51.330;12.374;2023-07-28T09:28:41;22.00;99.90
12438;DHT22;6283;51.330;12.374;2023-07-28T09:31:07;22.10;99.90
12438;DHT22;6283;51.330;12.374;2023-07-28T09:33:35;22.20;99.90
12438;DHT22;6283;51.330;12.374;2023-07-28T09:36:12;22.20;99.90
12438;DHT22;6283;51.330;12.374;2023-07-28T09:38:39;22.20;99.90
12438;DHT22;6283;51.330;12.374;2023-07-28T09:41:09;22.30;99.90
12438;DHT22;6283;51.330;12.374;2023-07-28T09:43:38;22.40;99.90
12438;DHT22;6283;51.330;12.374;2023-07-28T09:46:06;22.50;99.90
12438;DHT22;6283;51.330;12.374;2023-07-28T09:48:32;22.50;99.90
12438;DHT22;6283;51.330;12.374;2023-07-28T09:51:17;22.40;99.90
12438;DHT22;6283;51.330;12.374;2023-07-28T09:53:56;22.40;99.90
12438;DHT22;6283;51.330;12.374;2023-07-28T09:56:27;22.40;99.90
12438;DHT22;6283;51.330;12.374;2023-07-28T09:58:56;22.40;99.90
12438;DHT22;6283;51.330;12.374;2023-07-28T10:01:23;22.40;99.90
12438;DHT22;6283;51.330;12.374;2023-07-28T10:03:49;22.40;99.90
12438;DHT22;6283;51.330;12.374;2023-07-28T10:06:15;22.40;99.90
12438;DHT22;6283;51.330;12.374;2023-07-28T10:08:45;22.40;99.90
12438;DHT22;6283;51.330;12.374;2023-07-28T10:11:12;22.50;99.90
12438;DHT22;6283;51.330;12.374;2023-07-28T10:13:41;22.60;99.90
12438;DHT22;6283;51.330;12.374;2023-07-28T10:16:08;22.60;1.00
12438;DHT22;6283;51.330;12.374;2023-07-28T10:18:35;22.60;99.90
12438;DHT22;6283;51.330;12.374;2023-07-28T10:21:15;22.70;1.00
12438;DHT22;6283;51.330;12.374;2023-07-28T10:23:41;22.80;1.00
12438;DHT22;6283;51.330;12.374;2023-07-28T10:26:07;22.90;1.00
12438;DHT22;6283;51.330;12.374;2023-07-28T10:28:39;23.10;99.90
12438;DHT22;6283;51.330;12.374;2023-07-28T10:31:08;23.10;1.00
12438;DHT22;6283;51.330;12.374;2023-07-28T10:33:40;23.20;1.00
12438;DHT22;6283;51.330;12.374;2023-07-28T10:41:30;23.40;1.00
12438;DHT22;6283;51.330;12.374;2023-07-28T10:43:58;23.40;1.00
12438;DHT22;6283;51.330;12.374;2023-07-28T10:46:24;23.40;99.90
12438;DHT22;6283;51.330;12.374;2023-07-28T10:48:52;23.40;1.00
12438;DHT22;6283;51.330;12.374;2023-07-28T10:51:22;23.50;1.00
12438;DHT22;6283;51.330;12.374;2023-07-28T10:53:51;23.60;99.90
12438;DHT22;6283;51.330;12.374;2023-07-28T10:56:17;23.70;26.00
12438;DHT22;6283;51.330;12.374;2023-07-28T10:58:42;23.80;99.90
12438;DHT22;6283;51.330;12.374;2023-07-28T11:01:08;23.90;1.00
12438;DHT22;6283;51.330;12.374;2023-07-28T11:03:35;23.90;1.00
12438;DHT22;6283;51.330;12.374;2023-07-28T11:06:00;24.00;99.90
12438;DHT22;6283;51.330;12.374;2023-07-28T11:08:26;24.10;99.90
12438;DHT22;6283;51.330;12.374;2023-07-28T11:10:52;24.20;1.00
12438;DHT22;6283;51.330;12.374;2023-07-28T11:13:18;24.30;99.90
12438;DHT22;6283;51.330;12.374;2023-07-28T11:15:44;24.10;99.90
12438;DHT22;6283;51.330;12.374;2023-07-28T11:18:09;24.10;99.90
12438;DHT22;6283;51.330;12.374;2023-07-28T11:20:35;24.00;99.90
12438;DHT22;6283;51.330;12.374;2023-07-28T11:23:04;24.00;99.90
12438;DHT22;6283;51.330;12.374;2023-07-28T11:25:33;24.10;99.90
12438;DHT22;6283;51.330;12.374;2023-07-28T11:28:03;24.20;99.90
12438;DHT22;6283;51.330;12.374;2023-07-28T11:30:32;24.20;99.90
12438;DHT22;6283;51.330;12.374;2023-07-28T11:33:01;24.20;99.90
12438;DHT22;6283;51.330;12.374;2023-07-28T11:35:28;24.10;99.90
12438;DHT22;6283;51.330;12.374;2023-07-28T11:37:55;24.10;99.90
12438;DHT22;6283;51.330;12.374;2023-07-28T11:40:21;24.10;99.90
12438;DHT22;6283;51.330;12.374;2023-07-28T11:42:53;24.30;1.00
12438;DHT22;6283;51.330;12.374;2023-07-28T11:45:19;24.60;1.00
12438;DHT22;6283;51.330;12.374;2023-07-28T11:48:00;25.00;1.00
12438;DHT22;6283;51.330;12.374;2023-07-28T11:50:28;25.50;1.00
12438;DHT22;6283;51.330;12.374;2023-07-28T11:52:54;25.90;1.00
12438;DHT22;6283;51.330;12.374;2023-07-28T11:55:21;26.20;1.00
12438;DHT22;6283;51.330;12.374;2023-07-28T11:57:47;26.30;1.00
12438;DHT22;6283;51.330;12.374;2023-07-28T12:00:14;26.30;99.90
12438;DHT22;6283;51.330;12.374;2023-07-28T12:02:42;26.30;1.00
12438;DHT22;6283;51.330;12.374;2023-07-28T12:05:13;26.40;1.00
12438;DHT22;6283;51.330;12.374;2023-07-28T12:07:39;26.30;1.00
12438;DHT22;6283;51.330;12.374;2023-07-28T12:10:06;25.90;1.00
12438;DHT22;6283;51.330;12.374;2023-07-28T12:12:43;25.70;1.00
12438;DHT22;6283;51.330;12.374;2023-07-28T12:15:19;25.60;1.00
12438;DHT22;6283;51.330;12.374;2023-07-28T12:18:03;25.70;99.90
12438;DHT22;6283;51.330;12.374;2023-07-28T12:20:36;25.90;99.90
12438;DHT22;6283;51.330;12.374;2023-07-28T12:23:03;26.20;99.90
12438;DHT22;6283;51.330;12.374;2023-07-28T12:25:29;26.40;1.00
12438;DHT22;6283;51.330;12.374;2023-07-28T12:27:55;26.50;1.00
12438;DHT22;6283;51.330;12.374;2023-07-28T12:30:21;26.30;1.00
12438;DHT22;6283;51.330;12.374;2023-07-28T12:32:47;26.10;1.00
12438;DHT22;6283;51.330;12.374;2023-07-28T12:35:13;25.80;54.40
12438;DHT22;6283;51.330;12.374;2023-07-28T12:37:39;25.60;78.20
12438;DHT22;6283;51.330;12.374;2023-07-28T12:40:05;25.30;3.30
12438;DHT22;6283;51.330;12.374;2023-07-28T12:42:32;25.30;53.80
12438;DHT22;6283;51.330;12.374;2023-07-28T12:44:57;25.20;45.10
12438;DHT22;6283;51.330;12.374;2023-07-28T12:47:23;25.10;53.50
12438;DHT22;6283;51.330;12.374;2023-07-28T12:49:49;25.00;12.60
12438;DHT22;6283;51.330;12.374;2023-07-28T12:52:15;24.90;37.50
12438;DHT22;6283;51.330;12.374;2023-07-28T12:54:41;24.80;24.90
12438;DHT22;6283;51.330;12.374;2023-07-28T12:57:08;24.70;19.40
12438;DHT22;6283;51.330;12.374;2023-07-28T12:59:36;24.70;5.00
12438;DHT22;6283;51.330;12.374;2023-07-28T13:02:02;24.70;13.20
12438;DHT22;6283;51.330;12.374;2023-07-28T13:04:27;24.80;13.80
12438;DHT22;6283;51.330;12.374;2023-07-28T13:06:54;25.10;30.10
12438;DHT22;6283;51.330;12.374;2023-07-28T13:09:20;25.60;13.90
12438;DHT22;6283;51.330;12.374;2023-07-28T13:11:46;26.10;5.50
12438;DHT22;6283;51.330;12.374;2023-07-28T13:14:11;26.60;14.80
12438;DHT22;6283;51.330;12.374;2023-07-28T13:16:37;26.80;21.50
12438;DHT22;6283;51.330;12.374;2023-07-28T13:19:04;27.00;24.00
12438;DHT22;6283;51.330;12.374;2023-07-28T13:21:29;27.30;99.90
12438;DHT22;6283;51.330;12.374;2023-07-28T13:23:55;27.70;99.90
12438;DHT22;6283;51.330;12.374;2023-07-28T13:26:21;27.80;99.90
12438;DHT22;6283;51.330;12.374;2023-07-28T13:28:46;27.80;99.90
12438;DHT22;6283;51.330;12.374;2023-07-28T13:31:16;27.60;99.90
12438;DHT22;6283;51.330;12.374;2023-07-28T13:33:42;27.20;99.90
12438;DHT22;6283;51.330;12.374;2023-07-28T13:36:08;26.80;99.90
12438;DHT22;6283;51.330;12.374;2023-07-28T13:38:34;26.50;99.90
12438;DHT22;6283;51.330;12.374;2023-07-28T13:41:00;26.20;99.90
12438;DHT22;6283;51.330;12.374;2023-07-28T13:43:26;26.00;99.90
12438;DHT22;6283;51.330;12.374;2023-07-28T13:45:51;25.80;99.90
12438;DHT22;6283;51.330;12.374;2023-07-28T13:48:20;25.60;99.90
12438;DHT22;6283;51.330;12.374;2023-07-28T13:50:45;25.60;99.90
12438;DHT22;6283;51.330;12.374;2023-07-28T13:53:11;25.60;99.90
12438;DHT22;6283;51.330;12.374;2023-07-28T13:55:37;26.00;99.90
12438;DHT22;6283;51.330;12.374;2023-07-28T13:58:04;26.30;99.90
12438;DHT22;6283;51.330;12.374;2023-07-28T14:00:29;26.60;99.90
12438;DHT22;6283;51.330;12.374;2023-07-28T14:02:55;26.80;99.90
12438;DHT22;6283;51.330;12.374;2023-07-28T14:05:21;26.80;99.90
12438;DHT22;6283;51.330;12.374;2023-07-28T14:07:48;26.80;99.90
12438;DHT22;6283;51.330;12.374;2023-07-28T14:10:13;27.10;99.90
12438;DHT22;6283;51.330;12.374;2023-07-28T14:12:39;27.30;99.90
12438;DHT22;6283;51.330;12.374;2023-07-28T14:15:05;27.50;99.90
12438;DHT22;6283;51.330;12.374;2023-07-28T14:17:32;27.70;90.60
12438;DHT22;6283;51.330;12.374;2023-07-28T14:19:58;27.70;99.90
12438;DHT22;6283;51.330;12.374;2023-07-28T14:22:24;27.60;99.90
12438;DHT22;6283;51.330;12.374;2023-07-28T14:24:49;27.50;99.90
12438;DHT22;6283;51.330;12.374;2023-07-28T14:27:16;27.50;93.70
12438;DHT22;6283;51.330;12.374;2023-07-28T14:29:41;27.60;99.90
12438;DHT22;6283;51.330;12.374;2023-07-28T14:32:07;27.90;96.10
12438;DHT22;6283;51.330;12.374;2023-07-28T14:34:34;28.20;99.90
12438;DHT22;6283;51.330;12.374;2023-07-28T14:37:06;28.40;99.90
12438;DHT22;6283;51.330;12.374;2023-07-28T14:39:31;28.60;99.90
12438;DHT22;6283;51.330;12.374;2023-07-28T14:41:57;28.60;99.90
12438;DHT22;6283;51.330;12.374;2023-07-28T14:44:23;28.70;99.90
12438;DHT22;6283;51.330;12.374;2023-07-28T14:46:48;28.90;99.90
12438;DHT22;6283;51.330;12.374;2023-07-28T14:49:14;28.90;99.90
12438;DHT22;6283;51.330;12.374;2023-07-28T14:51:40;29.00;99.90
12438;DHT22;6283;51.330;12.374;2023-07-28T14:54:05;28.90;99.90
12438;DHT22;6283;51.330;12.374;2023-07-28T14:56:31;28.90;99.90
12438;DHT22;6283;51.330;12.374;2023-07-28T14:58:58;28.80;1.00
12438;DHT22;6283;51.330;12.374;2023-07-28T15:01:26;28.80;1.00
12438;DHT22;6283;51.330;12.374;2023-07-28T15:03:52;28.70;1.00
12438;DHT22;6283;51.330;12.374;2023-07-28T15:06:17;28.70;1.00
12438;DHT22;6283;51.330;12.374;2023-07-28T15:08:43;28.60;1.00
12438;DHT22;6283;51.330;12.374;2023-07-28T15:11:09;28.50;1.00
12438;DHT22;6283;51.330;12.374;2023-07-28T15:13:34;28.30;88.90
12438;DHT22;6283;51.330;12.374;2023-07-28T15:16:00;28.10;1.00
12438;DHT22;6283;51.330;12.374;2023-07-28T15:18:28;27.90;1.00
12438;DHT22;6283;51.330;12.374;2023-07-28T15:20:54;27.90;1.00
12438;DHT22;6283;51.330;12.374;2023-07-28T15:23:25;28.00;1.00
12438;DHT22;6283;51.330;12.374;2023-07-28T15:25:51;28.10;1.00
12438;DHT22;6283;51.330;12.374;2023-07-28T15:28:18;28.20;1.00
12438;DHT22;6283;51.330;12.374;2023-07-28T15:30:44;28.30;1.00
12438;DHT22;6283;51.330;12.374;2023-07-28T15:33:13;28.40;1.00
12438;DHT22;6283;51.330;12.374;2023-07-28T15:35:40;28.40;1.00
12438;DHT22;6283;51.330;12.374;2023-07-28T15:38:07;28.30;1.00
12438;DHT22;6283;51.330;12.374;2023-07-28T15:40:32;28.20;1.00